sensor_id;sensor_type;location;lat;lon;timestamp;temperature;humidity
8539;DHT22;4307;53.868;11.680;2023-08-01T00:01:42;16.70;99.90
8539;DHT22;4307;53.868;11.680;2023-08-01T00:04:10;16.60;99.90
8539;DHT22;4307;53.868;11.680;2023-08-01T00:06:37;16.60;99.90
8539;DHT22;4307;53.868;11.680;2023-08-01T00:09:03;16.60;99.90
8539;DHT22;4307;53.868;11.680;2023-08-01T00:11:30;16.50;99.90
8539;DHT22;4307;53.868;11.680;2023-08-01T00:13:57;16.40;99.90
8539;DHT22;4307;53.868;11.680;2023-08-01T00:16:24;16.50;99.90
8539;DHT22;4307;53.868;11.680;2023-08-01T00:18:50;16.50;99.90
8539;DHT22;4307;53.868;11.680;2023-08-01T00:21:18;16.50;99.90
8539;DHT22;4307;53.868;11.680;2023-08-01T00:23:45;16.50;99.90
8539;DHT22;4307;53.868;11.680;2023-08-01T00:26:11;16.50;99.90
8539;DHT22;4307;53.868;11.680;2023-08-01T00:28:38;16.50;99.90
8539;DHT22;4307;53.868;11.680;2023-08-01T00:31:06;16.50;99.90
8539;DHT22;4307;53.868;11.680;2023-08-01T00:33:34;16.50;99.90
8539;DHT22;4307;53.868;11.680;2023-08-01T00:36:01;16.40;99.90
8539;DHT22;4307;53.868;11.680;2023-08-01T00:38:29;16.40;99.90
8539;DHT22;4307;53.868;11.680;2023-08-01T00:40:56;16.40;99.90
8539;DHT22;4307;53.868;11.680;2023-08-01T00:43:22;16.30;99.90
8539;DHT22;4307;53.868;11.680;2023-08-01T00:45:49;16.30;99.90
8539;DHT22;4307;53.868;11.680;2023-08-01T00:48:16;16.20;99.90
8539;DHT22;4307;53.868;11.680;2023-08-01T00:50:44;16.20;99.90
8539;DHT22;4307;53.868;11.680;2023-08-01T00:53:12;16.20;99.90
8539;DHT22;4307;53.868;11.680;2023-08-01T00:55:40;16.20;99.90
8539;DHT22;4307;53.868;11.680;2023-08-01T00:58:07;16.20;99.90
8539;DHT22;4307;53.868;11.680;2023-08-01T01:00:33;16.20;99.90
8539;DHT22;4307;53.868;11.680;2023-08-01T01:03:00;16.20;99.90
8539;DHT22;4307;53.868;11.680;2023-08-01T01:05:31;16.10;99.90
8539;DHT22;4307;53.868;11.680;2023-08-01T01:07:58;16.10;99.90
8539;DHT22;4307;53.868;11.680;2023-08-01T01:10:25;16.10;99.90
8539;DHT22;4307;53.868;11.680;2023-08-01T01:12:53;16.10;99.90
8539;DHT22;4307;53.868;11.680;2023-08-01T01:15:20;16.10;99.90
8539;DHT22;4307;53.868;11.680;2023-08-01T01:17:47;16.20;99.90
8539;DHT22;4307;53.868;11.680;2023-08-01T01:20:14;16.20;99.90
8539;DHT22;4307;53.868;11.680;2023-08-01T01:22:42;16.20;99.90
8539;DHT22;4307;53.868;11.680;2023-08-01T01:25:10;16.20;99.90
8539;DHT22;4307;53.868;11.680;2023-08-01T01:27:38;16.20;99.90
8539;DHT22;4307;53.868;11.680;2023-08-01T01:30:06;16.20;99.90
8539;DHT22;4307;53.868;11.680;2023-08-01T01:32:33;16.20;99.90
8539;DHT22;4307;53.868;11.680;2023-08-01T01:35:02;16.20;99.90
8539;DHT22;4307;53.868;11.680;2023-08-01T01:37:29;16.30;99.90
8539;DHT22;4307;53.868;11.680;2023-08-01T01:39:57;16.30;99.90
8539;DHT22;4307;53.868;11.680;2023-08-01T01:42:24;16.30;99.90
8539;DHT22;4307;53.868;11.680;2023-08-01T01:44:50;16.30;99.90
8539;DHT22;4307;53.868;11.680;2023-08-01T01:47:17;16.30;99.90
8539;DHT22;4307;53.868;11.680;2023-08-01T01:49:44;16.40;99.90
8539;DHT22;4307;53.868;11.680;2023-08-01T01:52:11;16.40;99.90
8539;DHT22;4307;53.868;11.680;2023-08-01T01:54:37;16.40;99.90
8539;DHT22;4307;53.868;11.680;2023-08-01T01:57:06;16.40;99.90
8539;DHT22;4307;53.868;11.680;2023-08-01T01:59:32;16.40;99.90
8539;DHT22;4307;53.868;11.680;2023-08-01T02:01:59;16.50;99.90
8539;DHT22;4307;53.868;11.680;2023-08-01T02:04:26;16.50;99.90
8539;DHT22;4307;53.868;11.680;2023-08-01T02:06:52;16.50;99.90
8539;DHT22;4307;53.868;11.680;2023-08-01T02:09:20;16.50;99.90
8539;DHT22;4307;53.868;11.680;2023-08-01T02:11:46;16.60;99.90
8539;DHT22;4307;53.868;11.680;2023-08-01T02:14:15;16.60;99.90
8539;DHT22;4307;53.868;11.680;2023-08-01T02:16:42;16.60;99.90
8539;DHT22;4307;53.868;11.680;2023-08-01T02:19:09;16.60;99.90
8539;DHT22;4307;53.868;11.680;2023-08-01T02:21:35;16.60;99.90
8539;DHT22;4307;53.868;11.680;2023-08-01T02:24:02;16.60;99.90
8539;DHT22;4307;53.868;11.680;2023-08-01T02:26:29;16.70;99.90
8539;DHT22;4307;53.868;11.680;2023-08-01T02:28:56;16.70;99.90
8539;DHT22;4307;53.868;11.680;2023-08-01T02:31:24;16.70;99.90
8539;DHT22;4307;53.868;11.680;2023-08-01T02:33:50;16.70;99.90
8539;DHT22;4307;53.868;11.680;2023-08-01T02:36:17;16.70;99.90
8539;DHT22;4307;53.868;11.680;2023-08-01T02:38:44;16.70;99.90
8539;DHT22;4307;53.868;11.680;2023-08-01T02:41:11;16.70;99.90
8539;DHT22;4307;53.868;11.680;2023-08-01T02:43:37;16.80;99.90
8539;DHT22;4307;53.868;11.680;2023-08-01T02:46:04;16.80;99.90
8539;DHT22;4307;53.868;11.680;2023-08-01T02:48:32;16.80;99.90
8539;DHT22;4307;53.868;11.680;2023-08-01T02:51:00;16.80;99.90
8539;DHT22;4307;53.868;11.680;2023-08-01T02:53:27;16.80;99.90
8539;DHT22;4307;53.868;11.680;2023-08-01T02:55:54;16.80;99.90
8539;DHT22;4307;53.868;11.680;2023-08-01T02:58:20;16.80;99.90
8539;DHT22;4307;53.868;11.680;2023-08-01T03:00:47;16.80;99.90
8539;DHT22;4307;53.868;11.680;2023-08-01T03:03:14;16.80;99.90
8539;DHT22;4307;53.868;11.680;2023-08-01T03:05:42;16.80;99.90
8539;DHT22;4307;53.868;11.680;2023-08-01T03:08:09;16.80;99.90
8539;DHT22;4307;53.868;11.680;2023-08-01T03:10:35;16.80;99.90
8539;DHT22;4307;53.868;11.680;2023-08-01T03:13:02;16.80;99.90
8539;DHT22;4307;53.868;11.680;2023-08-01T03:15:29;16.80;99.90
8539;DHT22;4307;53.868;11.680;2023-08-01T03:17:55;16.80;99.90
8539;DHT22;4307;53.868;11.680;2023-08-01T03:20:22;16.80;99.90
8539;DHT22;4307;53.868;11.680;2023-08-01T03:22:50;16.80;99.90
8539;DHT22;4307;53.868;11.680;2023-08-01T03:25:17;16.70;99.90
8539;DHT22;4307;53.868;11.680;2023-08-01T03:27:44;16.70;99.90
8539;DHT22;4307;53.868;11.680;2023-08-01T03:30:10;16.70;99.90
8539;DHT22;4307;53.868;11.680;2023-08-01T03:32:37;16.60;99.90
8539;DHT22;4307;53.868;11.680;2023-08-01T03:35:05;16.60;99.90
8539;DHT22;4307;53.868;11.680;2023-08-01T03:37:31;16.60;99.90
8539;DHT22;4307;53.868;11.680;2023-08-01T03:39:59;16.60;99.90
8539;DHT22;4307;53.868;11.680;2023-08-01T03:42:26;16.60;99.90
8539;DHT22;4307;53.868;11.680;2023-08-01T03:44:53;16.60;99.90
8539;DHT22;4307;53.868;11.680;2023-08-01T03:47:19;16.60;99.90
8539;DHT22;4307;53.868;11.680;2023-08-01T03:49:47;16.60;99.90
8539;DHT22;4307;53.868;11.680;2023-08-01T03:52:13;16.60;99.90
8539;DHT22;4307;53.868;11.680;2023-08-01T03:54:40;16.60;99.90
8539;DHT22;4307;53.868;11.680;2023-08-01T03:57:08;16.60;99.90
8539;DHT22;4307;53.868;11.680;2023-08-01T03:59:36;16.60;99.90
8539;DHT22;4307;53.868;11.680;2023-08-01T04:02:03;16.70;99.90
8539;DHT22;4307;53.868;11.680;2023-08-01T04:04:30;16.70;99.90
8539;DHT22;4307;53.868;11.680;2023-08-01T04:06:57;16.70;99.90
8539;DHT22;4307;53.868;11.680;2023-08-01T04:09:24;16.70;99.90
8539;DHT22;4307;53.868;11.680;2023-08-01T04:11:50;16.70;99.90
8539;DHT22;4307;53.868;11.680;2023-08-01T04:14:18;16.70;99.90
8539;DHT22;4307;53.868;11.680;2023-08-01T04:16:45;16.70;99.90
8539;DHT22;4307;53.868;11.680;2023-08-01T04:19:12;16.70;99.90
8539;DHT22;4307;53.868;11.680;2023-08-01T04:21:39;16.80;99.90
8539;DHT22;4307;53.868;11.680;2023-08-01T04:24:06;16.70;99.90
8539;DHT22;4307;53.868;11.680;2023-08-01T04:26:32;16.80;99.90
8539;DHT22;4307;53.868;11.680;2023-08-01T04:28:59;16.70;99.90
8539;DHT22;4307;53.868;11.680;2023-08-01T04:31:27;16.70;99.90
8539;DHT22;4307;53.868;11.680;2023-08-01T04:33:53;16.80;99.90
8539;DHT22;4307;53.868;11.680;2023-08-01T04:36:20;16.80;99.90
8539;DHT22;4307;53.868;11.680;2023-08-01T04:38:47;16.80;99.90
8539;DHT22;4307;53.868;11.680;2023-08-01T04:41:14;16.90;99.90
8539;DHT22;4307;53.868;11.680;2023-08-01T04:43:40;16.80;99.90
8539;DHT22;4307;53.868;11.680;2023-08-01T04:46:07;16.80;99.90
8539;DHT22;4307;53.868;11.680;2023-08-01T04:48:35;16.90;99.90
8539;DHT22;4307;53.868;11.680;2023-08-01T04:51:02;16.90;99.90
8539;DHT22;4307;53.868;11.680;2023-08-01T04:53:28;16.90;99.90
8539;DHT22;4307;53.868;11.680;2023-08-01T04:55:55;16.90;99.90
8539;DHT22;4307;53.868;11.680;2023-08-01T04:58:22;17.00;99.90
8539;DHT22;4307;53.868;11.680;2023-08-01T05:00:48;17.00;99.90
8539;DHT22;4307;53.868;11.680;2023-08-01T05:03:15;17.00;99.90
8539;DHT22;4307;53.868;11.680;2023-08-01T05:05:43;17.00;99.90
8539;DHT22;4307;53.868;11.680;2023-08-01T05:08:10;17.00;99.90
8539;DHT22;4307;53.868;11.680;2023-08-01T05:10:36;17.00;99.90
8539;DHT22;4307;53.868;11.680;2023-08-01T05:13:03;17.10;99.90
8539;DHT22;4307;53.868;11.680;2023-08-01T05:15:29;17.00;99.90
8539;DHT22;4307;53.868;11.680;2023-08-01T05:17:56;17.10;99.90
8539;DHT22;4307;53.868;11.680;2023-08-01T05:20:23;17.10;99.90
8539;DHT22;4307;53.868;11.680;2023-08-01T05:22:52;17.20;99.90
8539;DHT22;4307;53.868;11.680;2023-08-01T05:25:19;17.20;99.90
8539;DHT22;4307;53.868;11.680;2023-08-01T05:27:45;17.20;99.90
8539;DHT22;4307;53.868;11.680;2023-08-01T05:30:12;17.20;99.90
8539;DHT22;4307;53.868;11.680;2023-08-01T05:32:39;17.20;99.90
8539;DHT22;4307;53.868;11.680;2023-08-01T05:35:07;17.30;99.90
8539;DHT22;4307;53.868;11.680;2023-08-01T05:37:34;17.30;99.90
8539;DHT22;4307;53.868;11.680;2023-08-01T05:40:02;17.40;99.90
8539;DHT22;4307;53.868;11.680;2023-08-01T05:42:29;17.40;99.90
8539;DHT22;4307;53.868;11.680;2023-08-01T05:44:56;17.40;99.90
8539;DHT22;4307;53.868;11.680;2023-08-01T05:47:23;17.40;99.90
8539;DHT22;4307;53.868;11.680;2023-08-01T05:49:49;17.50;99.90
8539;DHT22;4307;53.868;11.680;2023-08-01T05:52:16;17.40;99.90
8539;DHT22;4307;53.868;11.680;2023-08-01T05:54:43;17.50;99.90
8539;DHT22;4307;53.868;11.680;2023-08-01T05:57:11;17.50;99.90
8539;DHT22;4307;53.868;11.680;2023-08-01T05:59:37;17.50;99.90
8539;DHT22;4307;53.868;11.680;2023-08-01T06:02:04;17.50;99.90
8539;DHT22;4307;53.868;11.680;2023-08-01T06:04:32;17.50;99.90
8539;DHT22;4307;53.868;11.680;2023-08-01T06:06:58;17.50;99.90
8539;DHT22;4307;53.868;11.680;2023-08-01T06:09:25;17.60;99.90
8539;DHT22;4307;53.868;11.680;2023-08-01T06:11:52;17.60;99.90
8539;DHT22;4307;53.868;11.680;2023-08-01T06:14:20;17.60;99.90
8539;DHT22;4307;53.868;11.680;2023-08-01T06:16:47;17.60;99.90
8539;DHT22;4307;53.868;11.680;2023-08-01T06:19:13;17.60;99.90
8539;DHT22;4307;53.868;11.680;2023-08-01T06:21:40;17.60;99.90
8539;DHT22;4307;53.868;11.680;2023-08-01T06:24:06;17.70;99.90
8539;DHT22;4307;53.868;11.680;2023-08-01T06:26:34;17.70;99.90
8539;DHT22;4307;53.868;11.680;2023-08-01T06:29:00;17.70;99.90
8539;DHT22;4307;53.868;11.680;2023-08-01T06:31:28;17.70;99.90
8539;DHT22;4307;53.868;11.680;2023-08-01T06:33:55;17.80;99.90
8539;DHT22;4307;53.868;11.680;2023-08-01T06:36:22;17.80;99.90
8539;DHT22;4307;53.868;11.680;2023-08-01T06:38:49;17.80;99.90
8539;DHT22;4307;53.868;11.680;2023-08-01T06:41:15;17.80;99.90
8539;DHT22;4307;53.868;11.680;2023-08-01T06:43:42;17.80;99.90
8539;DHT22;4307;53.868;11.680;2023-08-01T06:46:08;17.90;99.90
8539;DHT22;4307;53.868;11.680;2023-08-01T06:48:36;17.90;99.90
8539;DHT22;4307;53.868;11.680;2023-08-01T06:51:03;17.90;99.90
8539;DHT22;4307;53.868;11.680;2023-08-01T06:53:30;18.10;99.90
8539;DHT22;4307;53.868;11.680;2023-08-01T06:55:56;18.10;99.90
8539;DHT22;4307;53.868;11.680;2023-08-01T06:58:23;18.20;99.90
8539;DHT22;4307;53.868;11.680;2023-08-01T07:00:50;18.20;99.90
8539;DHT22;4307;53.868;11.680;2023-08-01T07:03:17;18.30;99.90
8539;DHT22;4307;53.868;11.680;2023-08-01T07:05:45;18.30;99.90
8539;DHT22;4307;53.868;11.680;2023-08-01T07:08:11;18.30;99.90
8539;DHT22;4307;53.868;11.680;2023-08-01T07:10:38;18.20;99.90
8539;DHT22;4307;53.868;11.680;2023-08-01T07:13:05;18.20;99.90
8539;DHT22;4307;53.868;11.680;2023-08-01T07:15:32;18.20;99.90
8539;DHT22;4307;53.868;11.680;2023-08-01T07:17:59;18.20;99.90
8539;DHT22;4307;53.868;11.680;2023-08-01T07:20:25;18.20;99.90
8539;DHT22;4307;53.868;11.680;2023-08-01T07:22:53;18.20;99.90
8539;DHT22;4307;53.868;11.680;2023-08-01T07:25:20;18.20;99.90
8539;DHT22;4307;53.868;11.680;2023-08-01T07:27:47;18.10;99.90
8539;DHT22;4307;53.868;11.680;2023-08-01T07:30:14;18.10;99.90
8539;DHT22;4307;53.868;11.680;2023-08-01T07:32:41;18.10;99.90
8539;DHT22;4307;53.868;11.680;2023-08-01T07:35:09;18.10;99.90
8539;DHT22;4307;53.868;11.680;2023-08-01T07:37:36;18.10;99.90
8539;DHT22;4307;53.868;11.680;2023-08-01T07:40:05;18.00;99.90
8539;DHT22;4307;53.868;11.680;2023-08-01T07:42:32;18.00;99.90
8539;DHT22;4307;53.868;11.680;2023-08-01T07:44:58;18.00;99.90
8539;DHT22;4307;53.868;11.680;2023-08-01T07:47:25;18.00;99.90
8539;DHT22;4307;53.868;11.680;2023-08-01T07:49:52;18.00;99.90
8539;DHT22;4307;53.868;11.680;2023-08-01T07:52:19;18.00;99.90
8539;DHT22;4307;53.868;11.680;2023-08-01T07:54:46;18.00;99.90
8539;DHT22;4307;53.868;11.680;2023-08-01T07:57:14;18.00;99.90
8539;DHT22;4307;53.868;11.680;2023-08-01T07:59:41;18.10;99.90
8539;DHT22;4307;53.868;11.680;2023-08-01T08:02:07;18.10;99.90
8539;DHT22;4307;53.868;11.680;2023-08-01T08:04:34;18.20;99.90
8539;DHT22;4307;53.868;11.680;2023-08-01T08:07:01;18.20;99.90
8539;DHT22;4307;53.868;11.680;2023-08-01T08:09:27;18.20;99.90
8539;DHT22;4307;53.868;11.680;2023-08-01T08:11:54;18.30;99.90
8539;DHT22;4307;53.868;11.680;2023-08-01T08:14:24;18.30;99.90
8539;DHT22;4307;53.868;11.680;2023-08-01T08:16:51;18.30;99.90
8539;DHT22;4307;53.868;11.680;2023-08-01T08:19:17;18.30;99.90
8539;DHT22;4307;53.868;11.680;2023-08-01T08:21:44;18.20;99.90
8539;DHT22;4307;53.868;11.680;2023-08-01T08:24:11;18.20;99.90
8539;DHT22;4307;53.868;11.680;2023-08-01T08:26:37;18.20;99.90
8539;DHT22;4307;53.868;11.680;2023-08-01T08:29:05;18.20;99.90
8539;DHT22;4307;53.868;11.680;2023-08-01T08:31:33;18.10;99.90
8539;DHT22;4307;53.868;11.680;2023-08-01T08:33:59;18.10;99.90
8539;DHT22;4307;53.868;11.680;2023-08-01T08:36:26;18.00;99.90
8539;DHT22;4307;53.868;11.680;2023-08-01T08:38:53;18.00;99.90
8539;DHT22;4307;53.868;11.680;2023-08-01T08:41:21;18.00;99.90
8539;DHT22;4307;53.868;11.680;2023-08-01T08:43:48;18.00;99.90
8539;DHT22;4307;53.868;11.680;2023-08-01T08:46:16;18.00;99.90
8539;DHT22;4307;53.868;11.680;2023-08-01T08:48:44;18.00;99.90
8539;DHT22;4307;53.868;11.680;2023-08-01T08:51:13;18.10;99.90
8539;DHT22;4307;53.868;11.680;2023-08-01T08:53:40;18.10;99.90
8539;DHT22;4307;53.868;11.680;2023-08-01T08:56:08;18.20;99.90
8539;DHT22;4307;53.868;11.680;2023-08-01T08:58:36;18.30;99.90
8539;DHT22;4307;53.868;11.680;2023-08-01T09:01:05;18.30;99.90
8539;DHT22;4307;53.868;11.680;2023-08-01T09:03:33;18.40;99.90
8539;DHT22;4307;53.868;11.680;2023-08-01T09:06:07;18.40;99.90
8539;DHT22;4307;53.868;11.680;2023-08-01T09:08:36;18.40;99.90
8539;DHT22;4307;53.868;11.680;2023-08-01T09:11:04;18.50;99.90
8539;DHT22;4307;53.868;11.680;2023-08-01T09:13:30;18.50;99.90
8539;DHT22;4307;53.868;11.680;2023-08-01T09:15:57;18.60;99.90
8539;DHT22;4307;53.868;11.680;2023-08-01T09:18:24;18.60;99.90
8539;DHT22;4307;53.868;11.680;2023-08-01T09:20:53;18.70;99.90
8539;DHT22;4307;53.868;11.680;2023-08-01T09:23:24;18.80;99.90
8539;DHT22;4307;53.868;11.680;2023-08-01T09:25:51;19.00;99.90
8539;DHT22;4307;53.868;11.680;2023-08-01T09:28:19;19.20;99.90
8539;DHT22;4307;53.868;11.680;2023-08-01T09:30:48;19.30;99.90
8539;DHT22;4307;53.868;11.680;2023-08-01T09:33:15;19.40;99.90
8539;DHT22;4307;53.868;11.680;2023-08-01T09:35:42;19.50;99.90
8539;DHT22;4307;53.868;11.680;2023-08-01T09:38:10;19.50;99.90
8539;DHT22;4307;53.868;11.680;2023-08-01T09:40:39;19.60;99.90
8539;DHT22;4307;53.868;11.680;2023-08-01T09:43:06;19.70;99.90
8539;DHT22;4307;53.868;11.680;2023-08-01T09:45:33;19.80;99.90
8539;DHT22;4307;53.868;11.680;2023-08-01T09:48:01;19.90;99.90
8539;DHT22;4307;53.868;11.680;2023-08-01T09:50:28;20.10;99.90
8539;DHT22;4307;53.868;11.680;2023-08-01T09:52:55;20.30;99.90
8539;DHT22;4307;53.868;11.680;2023-08-01T09:55:26;20.40;99.90
8539;DHT22;4307;53.868;11.680;2023-08-01T09:57:56;20.50;99.90
8539;DHT22;4307;53.868;11.680;2023-08-01T10:00:25;20.60;99.90
8539;DHT22;4307;53.868;11.680;2023-08-01T10:02:52;20.60;99.90
8539;DHT22;4307;53.868;11.680;2023-08-01T10:05:19;20.70;99.90
8539;DHT22;4307;53.868;11.680;2023-08-01T10:07:48;20.90;99.90
8539;DHT22;4307;53.868;11.680;2023-08-01T10:10:17;21.10;99.90
8539;DHT22;4307;53.868;11.680;2023-08-01T10:12:45;21.20;99.90
8539;DHT22;4307;53.868;11.680;2023-08-01T10:15:15;21.20;99.90
8539;DHT22;4307;53.868;11.680;2023-08-01T10:17:42;21.20;99.90
8539;DHT22;4307;53.868;11.680;2023-08-01T10:20:10;21.10;99.90
8539;DHT22;4307;53.868;11.680;2023-08-01T10:22:39;21.20;99.90
8539;DHT22;4307;53.868;11.680;2023-08-01T10:25:08;21.20;99.90
8539;DHT22;4307;53.868;11.680;2023-08-01T10:27:35;21.10;99.90
8539;DHT22;4307;53.868;11.680;2023-08-01T10:30:04;21.10;99.90
8539;DHT22;4307;53.868;11.680;2023-08-01T10:32:34;21.30;99.90
8539;DHT22;4307;53.868;11.680;2023-08-01T10:35:01;21.70;99.90
8539;DHT22;4307;53.868;11.680;2023-08-01T10:37:38;22.00;99.90
8539;DHT22;4307;53.868;11.680;2023-08-01T10:40:07;22.20;99.90
8539;DHT22;4307;53.868;11.680;2023-08-01T10:42:38;22.20;99.90
8539;DHT22;4307;53.868;11.680;2023-08-01T10:45:06;22.20;99.90
8539;DHT22;4307;53.868;11.680;2023-08-01T10:47:34;22.20;99.90
8539;DHT22;4307;53.868;11.680;2023-08-01T10:50:00;22.20;99.90
8539;DHT22;4307;53.868;11.680;2023-08-01T10:52:28;22.30;99.90
8539;DHT22;4307;53.868;11.680;2023-08-01T10:54:58;22.40;99.90
8539;DHT22;4307;53.868;11.680;2023-08-01T10:57:26;22.60;99.90
8539;DHT22;4307;53.868;11.680;2023-08-01T10:59:54;22.80;99.90
8539;DHT22;4307;53.868;11.680;2023-08-01T11:02:22;23.00;99.90
8539;DHT22;4307;53.868;11.680;2023-08-01T11:04:58;23.30;99.90
8539;DHT22;4307;53.868;11.680;2023-08-01T11:07:25;23.50;99.90
8539;DHT22;4307;53.868;11.680;2023-08-01T11:10:06;23.50;99.90
8539;DHT22;4307;53.868;11.680;2023-08-01T11:12:34;23.60;99.90
8539;DHT22;4307;53.868;11.680;2023-08-01T11:15:02;23.70;99.90
8539;DHT22;4307;53.868;11.680;2023-08-01T11:17:29;23.60;99.90
8539;DHT22;4307;53.868;11.680;2023-08-01T11:20:05;23.50;99.90
8539;DHT22;4307;53.868;11.680;2023-08-01T11:22:33;23.60;99.90
8539;DHT22;4307;53.868;11.680;2023-08-01T11:24:59;23.80;99.90
8539;DHT22;4307;53.868;11.680;2023-08-01T11:27:26;23.90;99.90
8539;DHT22;4307;53.868;11.680;2023-08-01T11:29:54;24.00;99.90
8539;DHT22;4307;53.868;11.680;2023-08-01T11:32:21;24.10;99.90
8539;DHT22;4307;53.868;11.680;2023-08-01T11:34:48;24.00;99.90
8539;DHT22;4307;53.868;11.680;2023-08-01T11:37:18;23.90;99.90
8539;DHT22;4307;53.868;11.680;2023-08-01T11:39:46;23.80;99.90
8539;DHT22;4307;53.868;11.680;2023-08-01T11:42:15;23.80;99.90
8539;DHT22;4307;53.868;11.680;2023-08-01T11:44:42;23.60;99.90
8539;DHT22;4307;53.868;11.680;2023-08-01T11:47:11;23.40;99.90
8539;DHT22;4307;53.868;11.680;2023-08-01T11:49:39;23.20;99.90
8539;DHT22;4307;53.868;11.680;2023-08-01T11:52:06;23.10;99.90
8539;DHT22;4307;53.868;11.680;2023-08-01T11:54:44;22.90;99.90
8539;DHT22;4307;53.868;11.680;2023-08-01T11:57:11;22.80;99.90
8539;DHT22;4307;53.868;11.680;2023-08-01T11:59:46;22.70;99.90
8539;DHT22;4307;53.868;11.680;2023-08-01T12:02:20;22.60;99.90
8539;DHT22;4307;53.868;11.680;2023-08-01T12:04:47;22.50;99.90
8539;DHT22;4307;53.868;11.680;2023-08-01T12:07:14;22.40;99.90
8539;DHT22;4307;53.868;11.680;2023-08-01T12:09:41;22.30;99.90
8539;DHT22;4307;53.868;11.680;2023-08-01T12:12:10;22.10;99.90
8539;DHT22;4307;53.868;11.680;2023-08-01T12:14:39;21.80;99.90
8539;DHT22;4307;53.868;11.680;2023-08-01T12:17:06;21.40;99.90
8539;DHT22;4307;53.868;11.680;2023-08-01T12:19:33;20.80;99.90
8539;DHT22;4307;53.868;11.680;2023-08-01T12:22:00;20.20;99.90
8539;DHT22;4307;53.868;11.680;2023-08-01T12:24:26;19.80;99.90
8539;DHT22;4307;53.868;11.680;2023-08-01T12:26:53;19.40;99.90
8539;DHT22;4307;53.868;11.680;2023-08-01T12:29:21;19.20;99.90
8539;DHT22;4307;53.868;11.680;2023-08-01T12:31:48;19.00;99.90
8539;DHT22;4307;53.868;11.680;2023-08-01T12:34:15;18.90;99.90
8539;DHT22;4307;53.868;11.680;2023-08-01T12:36:41;18.70;99.90
8539;DHT22;4307;53.868;11.680;2023-08-01T12:39:08;18.60;99.90
8539;DHT22;4307;53.868;11.680;2023-08-01T12:41:36;18.50;99.90
8539;DHT22;4307;53.868;11.680;2023-08-01T12:44:03;18.40;99.90
8539;DHT22;4307;53.868;11.680;2023-08-01T12:46:31;18.40;99.90
8539;DHT22;4307;53.868;11.680;2023-08-01T12:48:58;18.50;99.90
8539;DHT22;4307;53.868;11.680;2023-08-01T12:51:25;18.90;99.90
8539;DHT22;4307;53.868;11.680;2023-08-01T12:53:52;19.90;99.90
8539;DHT22;4307;53.868;11.680;2023-08-01T12:56:18;21.10;99.90
8539;DHT22;4307;53.868;11.680;2023-08-01T12:58:45;22.20;99.90
8539;DHT22;4307;53.868;11.680;2023-08-01T13:01:12;23.30;99.90
8539;DHT22;4307;53.868;11.680;2023-08-01T13:03:40;24.30;99.90
8539;DHT22;4307;53.868;11.680;2023-08-01T13:06:06;24.60;99.90
8539;DHT22;4307;53.868;11.680;2023-08-01T13:08:36;24.40;99.90
8539;DHT22;4307;53.868;11.680;2023-08-01T13:11:09;24.00;99.90
8539;DHT22;4307;53.868;11.680;2023-08-01T13:13:36;23.50;99.90
8539;DHT22;4307;53.868;11.680;2023-08-01T13:16:03;22.90;99.90
8539;DHT22;4307;53.868;11.680;2023-08-01T13:18:30;22.30;99.90
8539;DHT22;4307;53.868;11.680;2023-08-01T13:20:58;21.70;99.90
8539;DHT22;4307;53.868;11.680;2023-08-01T13:23:25;21.10;99.90
8539;DHT22;4307;53.868;11.680;2023-08-01T13:25:51;20.80;99.90
8539;DHT22;4307;53.868;11.680;2023-08-01T13:28:18;20.40;99.90
8539;DHT22;4307;53.868;11.680;2023-08-01T13:30:45;20.20;99.90
8539;DHT22;4307;53.868;11.680;2023-08-01T13:33:11;20.00;99.90
8539;DHT22;4307;53.868;11.680;2023-08-01T13:35:38;19.80;99.90
8539;DHT22;4307;53.868;11.680;2023-08-01T13:38:06;19.60;99.90
8539;DHT22;4307;53.868;11.680;2023-08-01T13:40:33;19.40;99.90
8539;DHT22;4307;53.868;11.680;2023-08-01T13:43:00;19.30;99.90
8539;DHT22;4307;53.868;11.680;2023-08-01T13:45:30;19.10;99.90
8539;DHT22;4307;53.868;11.680;2023-08-01T13:47:56;19.10;99.90
8539;DHT22;4307;53.868;11.680;2023-08-01T13:50:24;19.00;99.90
8539;DHT22;4307;53.868;11.680;2023-08-01T13:52:51;19.00;99.90
8539;DHT22;4307;53.868;11.680;2023-08-01T13:55:19;18.90;99.90
8539;DHT22;4307;53.868;11.680;2023-08-01T13:57:46;18.80;99.90
8539;DHT22;4307;53.868;11.680;2023-08-01T14:00:13;18.80;99.90
8539;DHT22;4307;53.868;11.680;2023-08-01T14:02:40;18.70;99.90
8539;DHT22;4307;53.868;11.680;2023-08-01T14:05:07;18.80;99.90
8539;DHT22;4307;53.868;11.680;2023-08-01T14:07:35;18.80;99.90
8539;DHT22;4307;53.868;11.680;2023-08-01T14:10:02;18.90;99.90
8539;DHT22;4307;53.868;11.680;2023-08-01T14:12:30;19.00;99.90
8539;DHT22;4307;53.868;11.680;2023-08-01T14:14:57;19.10;99.90
8539;DHT22;4307;53.868;11.680;2023-08-01T14:17:23;19.20;99.90
8539;DHT22;4307;53.868;11.680;2023-08-01T14:19:50;19.20;99.90
8539;DHT22;4307;53.868;11.680;2023-08-01T14:22:17;19.30;99.90
8539;DHT22;4307;53.868;11.680;2023-08-01T14:24:43;19.30;99.90
8539;DHT22;4307;53.868;11.680;2023-08-01T14:27:10;19.30;99.90
8539;DHT22;4307;53.868;11.680;2023-08-01T14:29:38;19.40;99.90
8539;DHT22;4307;53.868;11.680;2023-08-01T14:32:06;19.60;99.90
8539;DHT22;4307;53.868;11.680;2023-08-01T14:34:33;19.60;99.90
8539;DHT22;4307;53.868;11.680;2023-08-01T14:37:00;19.70;99.90
8539;DHT22;4307;53.868;11.680;2023-08-01T14:39:27;19.80;99.90
8539;DHT22;4307;53.868;11.680;2023-08-01T14:41:54;19.90;99.90
8539;DHT22;4307;53.868;11.680;2023-08-01T14:44:21;19.90;99.90
8539;DHT22;4307;53.868;11.680;2023-08-01T14:46:49;19.80;99.90
8539;DHT22;4307;53.868;11.680;2023-08-01T14:49:15;19.90;99.90
8539;DHT22;4307;53.868;11.680;2023-08-01T14:51:42;19.90;99.90
8539;DHT22;4307;53.868;11.680;2023-08-01T14:54:09;19.90;99.90
8539;DHT22;4307;53.868;11.680;2023-08-01T14:56:35;19.90;99.90
8539;DHT22;4307;53.868;11.680;2023-08-01T14:59:02;20.00;99.90
8539;DHT22;4307;53.868;11.680;2023-08-01T15:01:29;20.00;99.90
8539;DHT22;4307;53.868;11.680;2023-08-01T15:03:57;20.00;99.90
8539;DHT22;4307;53.868;11.680;2023-08-01T15:06:24;20.00;99.90
8539;DHT22;4307;53.868;11.680;2023-08-01T15:08:51;20.00;99.90
8539;DHT22;4307;53.868;11.680;2023-08-01T15:11:18;20.00;99.90
8539;DHT22;4307;53.868;11.680;2023-08-01T15:13:45;20.00;99.90
8539;DHT22;4307;53.868;11.680;2023-08-01T15:16:12;20.20;99.90
8539;DHT22;4307;53.868;11.680;2023-08-01T15:18:39;20.30;99.90
8539;DHT22;4307;53.868;11.680;2023-08-01T15:21:07;20.40;99.90
8539;DHT22;4307;53.868;11.680;2023-08-01T15:23:34;20.50;99.90
8539;DHT22;4307;53.868;11.680;2023-08-01T15:26:01;20.50;99.90
8539;DHT22;4307;53.868;11.680;2023-08-01T15:28:27;20.60;99.90
8539;DHT22;4307;53.868;11.680;2023-08-01T15:31:04;20.60;99.90
8539;DHT22;4307;53.868;11.680;2023-08-01T15:33:32;20.60;99.90
8539;DHT22;4307;53.868;11.680;2023-08-01T15:36:00;20.60;99.90
8539;DHT22;4307;53.868;11.680;2023-08-01T15:38:30;20.60;99.90
8539;DHT22;4307;53.868;11.680;2023-08-01T15:40:57;20.70;99.90
8539;DHT22;4307;53.868;11.680;2023-08-01T15:43:24;20.80;99.90
8539;DHT22;4307;53.868;11.680;2023-08-01T15:45:53;20.70;99.90